WMKC/KBR METAR and TAF weather

Enter ICAO airport designator
Station Type Date Time Source
WMKC METAR 2019/08/22 20:00 UTC NOAA

WMKC 222000Z 11003KT 070V160 9000 -TSRA FEW017CB SCT020 BKN280 27/25 Q1010


Station Type Date Time Source
WMKC Decoded METAR 2019/08/22 20:00 UTC NOAA

Station name not available
Aug 22, 2019 - 04:00 PM EDT / 2019.08.22 2000 UTC
Wind: from the ESE (110 degrees) at 3 MPH (3 KT) (direction variable):0
Visibility: 5 mile(s):0
Sky conditions: mostly cloudy
Weather: light rain with thunder; Cumulonimbus clouds observed
Temperature: 80 F (27 C)
Dew Point: 77 F (25 C)
Relative Humidity: 88%
Pressure (altimeter): 29.83 in. Hg (1010 hPa)
ob: WMKC 222000Z 11003KT 070V160 9000 -TSRA FEW017CB SCT020 BKN280 27/25 Q1010
cycle: 20

Station Type Date Time Source
WMKC TAF 2019/08/22 18:00 UTC NOAA

TAF WMKC 221700Z 2218/2318 VRB02KT 9999 FEW020
BECMG 2300/2302 23005KT FEW018
TEMPO 2308/2312 6000 TSRA FEW010 FEW017CB SCT020

Example: see airport list